sensor_id;sensor_type;location;lat;lon;timestamp;P1;durP1;ratioP1;P2;durP2;ratioP2
56399;SDS011;42298;53.638;9.876;2023-02-28T00:00:38;20.60;;;11.70;;
56399;SDS011;42298;53.638;9.876;2023-02-28T00:03:03;23.70;;;12.80;;
56399;SDS011;42298;53.638;9.876;2023-02-28T00:05:29;22.60;;;12.63;;
56399;SDS011;42298;53.638;9.876;2023-02-28T00:07:57;20.60;;;11.43;;
56399;SDS011;42298;53.638;9.876;2023-02-28T00:10:23;20.97;;;12.60;;
56399;SDS011;42298;53.638;9.876;2023-02-28T00:12:51;21.07;;;11.53;;
56399;SDS011;42298;53.638;9.876;2023-02-28T00:15:18;20.80;;;11.83;;
56399;SDS011;42298;53.638;9.876;2023-02-28T00:17:46;17.77;;;11.17;;
56399;SDS011;42298;53.638;9.876;2023-02-28T00:20:12;21.83;;;12.03;;
56399;SDS011;42298;53.638;9.876;2023-02-28T00:22:42;20.80;;;11.53;;
56399;SDS011;42298;53.638;9.876;2023-02-28T00:25:09;21.27;;;11.57;;
56399;SDS011;42298;53.638;9.876;2023-02-28T00:27:41;21.13;;;12.23;;
56399;SDS011;42298;53.638;9.876;2023-02-28T00:30:08;21.20;;;10.40;;
56399;SDS011;42298;53.638;9.876;2023-02-28T00:32:36;23.00;;;12.13;;
56399;SDS011;42298;53.638;9.876;2023-02-28T00:35:03;19.47;;;11.20;;
56399;SDS011;42298;53.638;9.876;2023-02-28T00:37:29;21.53;;;11.40;;
56399;SDS011;42298;53.638;9.876;2023-02-28T00:39:54;19.60;;;11.30;;
56399;SDS011;42298;53.638;9.876;2023-02-28T00:42:19;19.97;;;11.77;;
56399;SDS011;42298;53.638;9.876;2023-02-28T00:44:45;19.93;;;10.63;;
56399;SDS011;42298;53.638;9.876;2023-02-28T00:47:10;19.10;;;11.23;;
56399;SDS011;42298;53.638;9.876;2023-02-28T00:49:35;20.20;;;10.70;;
56399;SDS011;42298;53.638;9.876;2023-02-28T00:52:01;21.03;;;10.83;;
56399;SDS011;42298;53.638;9.876;2023-02-28T00:54:26;18.50;;;11.13;;
56399;SDS011;42298;53.638;9.876;2023-02-28T00:56:52;17.33;;;10.87;;
56399;SDS011;42298;53.638;9.876;2023-02-28T00:59:17;17.47;;;10.43;;
56399;SDS011;42298;53.638;9.876;2023-02-28T01:01:43;20.03;;;10.77;;
56399;SDS011;42298;53.638;9.876;2023-02-28T01:04:09;18.50;;;11.00;;
56399;SDS011;42298;53.638;9.876;2023-02-28T01:06:35;20.00;;;11.43;;
56399;SDS011;42298;53.638;9.876;2023-02-28T01:09:01;18.90;;;10.63;;
56399;SDS011;42298;53.638;9.876;2023-02-28T01:11:28;22.17;;;10.87;;
56399;SDS011;42298;53.638;9.876;2023-02-28T01:13:53;19.53;;;11.50;;
56399;SDS011;42298;53.638;9.876;2023-02-28T01:16:19;17.40;;;10.77;;
56399;SDS011;42298;53.638;9.876;2023-02-28T01:18:44;20.17;;;12.13;;
56399;SDS011;42298;53.638;9.876;2023-02-28T01:21:11;18.13;;;10.83;;
56399;SDS011;42298;53.638;9.876;2023-02-28T01:23:38;18.77;;;11.10;;
56399;SDS011;42298;53.638;9.876;2023-02-28T01:26:05;21.27;;;11.83;;
56399;SDS011;42298;53.638;9.876;2023-02-28T01:28:31;18.47;;;11.33;;
56399;SDS011;42298;53.638;9.876;2023-02-28T01:30:57;19.90;;;11.27;;
56399;SDS011;42298;53.638;9.876;2023-02-28T01:33:22;18.63;;;11.27;;
56399;SDS011;42298;53.638;9.876;2023-02-28T01:35:47;19.50;;;11.50;;
56399;SDS011;42298;53.638;9.876;2023-02-28T01:38:13;17.57;;;11.47;;
56399;SDS011;42298;53.638;9.876;2023-02-28T01:40:38;19.07;;;11.27;;
56399;SDS011;42298;53.638;9.876;2023-02-28T01:43:04;20.23;;;11.90;;
56399;SDS011;42298;53.638;9.876;2023-02-28T01:45:43;18.70;;;10.80;;
56399;SDS011;42298;53.638;9.876;2023-02-28T01:48:09;18.87;;;10.63;;
56399;SDS011;42298;53.638;9.876;2023-02-28T01:50:35;18.70;;;8.77;;
56399;SDS011;42298;53.638;9.876;2023-02-28T01:53:06;14.43;;;7.60;;
56399;SDS011;42298;53.638;9.876;2023-02-28T01:55:35;13.83;;;6.37;;
56399;SDS011;42298;53.638;9.876;2023-02-28T01:58:03;13.67;;;5.43;;
56399;SDS011;42298;53.638;9.876;2023-02-28T02:00:31;12.30;;;6.10;;
56399;SDS011;42298;53.638;9.876;2023-02-28T02:02:57;12.83;;;5.80;;
56399;SDS011;42298;53.638;9.876;2023-02-28T02:05:27;11.37;;;6.03;;
56399;SDS011;42298;53.638;9.876;2023-02-28T02:07:56;12.53;;;5.63;;
56399;SDS011;42298;53.638;9.876;2023-02-28T02:10:30;13.20;;;5.60;;
56399;SDS011;42298;53.638;9.876;2023-02-28T02:15:54;13.30;;;6.23;;
56399;SDS011;42298;53.638;9.876;2023-02-28T02:18:35;12.37;;;6.20;;
56399;SDS011;42298;53.638;9.876;2023-02-28T02:24:00;14.37;;;5.93;;
56399;SDS011;42298;53.638;9.876;2023-02-28T02:27:33;11.80;;;5.80;;
56399;SDS011;42298;53.638;9.876;2023-02-28T02:35:19;10.07;;;4.63;;
56399;SDS011;42298;53.638;9.876;2023-02-28T02:38:09;12.90;;;5.17;;
56399;SDS011;42298;53.638;9.876;2023-02-28T02:40:50;8.43;;;4.63;;
56399;SDS011;42298;53.638;9.876;2023-02-28T02:43:25;10.47;;;4.80;;
56399;SDS011;42298;53.638;9.876;2023-02-28T02:46:17;10.67;;;5.20;;
56399;SDS011;42298;53.638;9.876;2023-02-28T02:48:46;11.40;;;5.13;;
56399;SDS011;42298;53.638;9.876;2023-02-28T02:51:16;11.20;;;4.87;;
56399;SDS011;42298;53.638;9.876;2023-02-28T02:53:48;10.10;;;4.70;;
56399;SDS011;42298;53.638;9.876;2023-02-28T02:56:18;10.27;;;4.57;;
56399;SDS011;42298;53.638;9.876;2023-02-28T02:58:48;11.10;;;4.97;;
56399;SDS011;42298;53.638;9.876;2023-02-28T03:01:20;12.00;;;5.50;;
56399;SDS011;42298;53.638;9.876;2023-02-28T03:03:58;9.57;;;4.00;;
56399;SDS011;42298;53.638;9.876;2023-02-28T03:06:27;13.37;;;4.67;;
56399;SDS011;42298;53.638;9.876;2023-02-28T03:08:53;11.20;;;4.50;;
56399;SDS011;42298;53.638;9.876;2023-02-28T03:11:18;12.03;;;4.83;;
56399;SDS011;42298;53.638;9.876;2023-02-28T03:16:23;10.10;;;3.90;;
56399;SDS011;42298;53.638;9.876;2023-02-28T03:24:26;10.93;;;4.23;;
56399;SDS011;42298;53.638;9.876;2023-02-28T03:26:58;8.97;;;3.70;;
56399;SDS011;42298;53.638;9.876;2023-02-28T03:29:32;13.47;;;4.43;;
56399;SDS011;42298;53.638;9.876;2023-02-28T03:37:04;11.53;;;4.30;;
56399;SDS011;42298;53.638;9.876;2023-02-28T03:42:31;7.90;;;3.97;;
56399;SDS011;42298;53.638;9.876;2023-02-28T03:45:01;9.33;;;4.13;;
56399;SDS011;42298;53.638;9.876;2023-02-28T03:48:15;10.57;;;3.90;;
56399;SDS011;42298;53.638;9.876;2023-02-28T03:50:29;7.43;;;4.03;;
56399;SDS011;42298;53.638;9.876;2023-02-28T03:53:04;13.60;;;3.90;;
56399;SDS011;42298;53.638;9.876;2023-02-28T03:55:35;12.93;;;4.23;;
56399;SDS011;42298;53.638;9.876;2023-02-28T03:58:11;9.93;;;3.97;;
56399;SDS011;42298;53.638;9.876;2023-02-28T04:00:40;10.60;;;4.37;;
56399;SDS011;42298;53.638;9.876;2023-02-28T04:03:13;11.33;;;4.10;;
56399;SDS011;42298;53.638;9.876;2023-02-28T04:05:52;7.53;;;3.73;;
56399;SDS011;42298;53.638;9.876;2023-02-28T04:08:19;8.67;;;4.20;;
56399;SDS011;42298;53.638;9.876;2023-02-28T04:10:56;8.43;;;3.80;;
56399;SDS011;42298;53.638;9.876;2023-02-28T04:13:27;10.07;;;4.27;;
56399;SDS011;42298;53.638;9.876;2023-02-28T04:15:52;10.77;;;4.30;;
56399;SDS011;42298;53.638;9.876;2023-02-28T04:18:17;15.53;;;5.00;;
56399;SDS011;42298;53.638;9.876;2023-02-28T04:20:42;10.80;;;4.20;;
56399;SDS011;42298;53.638;9.876;2023-02-28T04:23:08;10.23;;;4.60;;
56399;SDS011;42298;53.638;9.876;2023-02-28T04:25:33;9.70;;;3.87;;
56399;SDS011;42298;53.638;9.876;2023-02-28T04:27:59;9.47;;;4.57;;
56399;SDS011;42298;53.638;9.876;2023-02-28T04:30:24;11.57;;;4.20;;
56399;SDS011;42298;53.638;9.876;2023-02-28T04:32:49;11.37;;;5.17;;
56399;SDS011;42298;53.638;9.876;2023-02-28T04:35:15;10.00;;;4.97;;
56399;SDS011;42298;53.638;9.876;2023-02-28T04:37:40;15.53;;;5.20;;
56399;SDS011;42298;53.638;9.876;2023-02-28T04:40:06;13.03;;;6.37;;
56399;SDS011;42298;53.638;9.876;2023-02-28T04:42:32;12.93;;;5.43;;
56399;SDS011;42298;53.638;9.876;2023-02-28T04:45:00;13.13;;;5.33;;
56399;SDS011;42298;53.638;9.876;2023-02-28T04:47:27;10.30;;;5.00;;
56399;SDS011;42298;53.638;9.876;2023-02-28T04:49:52;14.30;;;5.53;;
56399;SDS011;42298;53.638;9.876;2023-02-28T04:52:17;11.37;;;5.50;;
56399;SDS011;42298;53.638;9.876;2023-02-28T04:54:44;13.97;;;5.73;;
56399;SDS011;42298;53.638;9.876;2023-02-28T04:57:10;15.30;;;5.13;;
56399;SDS011;42298;53.638;9.876;2023-02-28T04:59:38;15.43;;;5.90;;
56399;SDS011;42298;53.638;9.876;2023-02-28T05:02:03;12.07;;;4.90;;
56399;SDS011;42298;53.638;9.876;2023-02-28T05:04:32;14.60;;;5.23;;
56399;SDS011;42298;53.638;9.876;2023-02-28T05:07:01;9.80;;;5.00;;
56399;SDS011;42298;53.638;9.876;2023-02-28T05:09:28;13.30;;;5.40;;
56399;SDS011;42298;53.638;9.876;2023-02-28T05:11:53;11.63;;;5.83;;
56399;SDS011;42298;53.638;9.876;2023-02-28T05:14:19;11.87;;;5.83;;
56399;SDS011;42298;53.638;9.876;2023-02-28T05:16:44;15.83;;;6.67;;
56399;SDS011;42298;53.638;9.876;2023-02-28T05:19:09;16.73;;;7.77;;
56399;SDS011;42298;53.638;9.876;2023-02-28T05:21:39;13.87;;;5.73;;
56399;SDS011;42298;53.638;9.876;2023-02-28T05:24:08;14.00;;;5.83;;
56399;SDS011;42298;53.638;9.876;2023-02-28T05:26:35;15.93;;;6.40;;
56399;SDS011;42298;53.638;9.876;2023-02-28T05:29:03;19.60;;;7.23;;
56399;SDS011;42298;53.638;9.876;2023-02-28T05:31:28;15.23;;;6.80;;
56399;SDS011;42298;53.638;9.876;2023-02-28T05:33:53;16.40;;;6.87;;
56399;SDS011;42298;53.638;9.876;2023-02-28T05:36:19;15.87;;;6.93;;
56399;SDS011;42298;53.638;9.876;2023-02-28T05:38:46;17.23;;;7.77;;
56399;SDS011;42298;53.638;9.876;2023-02-28T05:41:14;17.97;;;8.67;;
56399;SDS011;42298;53.638;9.876;2023-02-28T05:43:40;20.23;;;8.50;;
56399;SDS011;42298;53.638;9.876;2023-02-28T05:46:05;17.77;;;8.00;;
56399;SDS011;42298;53.638;9.876;2023-02-28T05:48:33;17.23;;;8.27;;
56399;SDS011;42298;53.638;9.876;2023-02-28T05:50:59;19.33;;;9.20;;
56399;SDS011;42298;53.638;9.876;2023-02-28T05:53:25;21.93;;;9.93;;
56399;SDS011;42298;53.638;9.876;2023-02-28T05:55:51;23.13;;;10.33;;
56399;SDS011;42298;53.638;9.876;2023-02-28T05:58:17;24.20;;;11.53;;
56399;SDS011;42298;53.638;9.876;2023-02-28T06:00:42;29.83;;;13.37;;
56399;SDS011;42298;53.638;9.876;2023-02-28T06:03:07;23.37;;;12.20;;
56399;SDS011;42298;53.638;9.876;2023-02-28T06:05:33;26.03;;;12.30;;
56399;SDS011;42298;53.638;9.876;2023-02-28T06:07:58;25.37;;;12.47;;
56399;SDS011;42298;53.638;9.876;2023-02-28T06:10:24;25.27;;;12.17;;
56399;SDS011;42298;53.638;9.876;2023-02-28T06:12:49;27.23;;;12.80;;
56399;SDS011;42298;53.638;9.876;2023-02-28T06:15:15;28.27;;;12.63;;
56399;SDS011;42298;53.638;9.876;2023-02-28T06:17:42;27.40;;;13.17;;
56399;SDS011;42298;53.638;9.876;2023-02-28T06:20:08;30.77;;;12.37;;
56399;SDS011;42298;53.638;9.876;2023-02-28T06:22:35;27.23;;;12.73;;
56399;SDS011;42298;53.638;9.876;2023-02-28T06:25:01;22.87;;;12.30;;
56399;SDS011;42298;53.638;9.876;2023-02-28T06:27:28;26.17;;;12.47;;
56399;SDS011;42298;53.638;9.876;2023-02-28T06:29:54;28.07;;;12.20;;
56399;SDS011;42298;53.638;9.876;2023-02-28T06:32:23;26.43;;;13.07;;
56399;SDS011;42298;53.638;9.876;2023-02-28T06:34:48;31.73;;;13.53;;
56399;SDS011;42298;53.638;9.876;2023-02-28T06:37:15;28.30;;;14.87;;
56399;SDS011;42298;53.638;9.876;2023-02-28T06:39:42;28.80;;;14.57;;
56399;SDS011;42298;53.638;9.876;2023-02-28T06:42:07;29.10;;;14.17;;
56399;SDS011;42298;53.638;9.876;2023-02-28T06:44:32;25.13;;;13.50;;
56399;SDS011;42298;53.638;9.876;2023-02-28T06:47:00;33.80;;;14.27;;
56399;SDS011;42298;53.638;9.876;2023-02-28T06:49:28;28.77;;;14.23;;
56399;SDS011;42298;53.638;9.876;2023-02-28T06:51:53;28.23;;;14.37;;
56399;SDS011;42298;53.638;9.876;2023-02-28T06:54:19;32.47;;;15.17;;
56399;SDS011;42298;53.638;9.876;2023-02-28T06:56:44;27.53;;;13.90;;
56399;SDS011;42298;53.638;9.876;2023-02-28T06:59:09;27.00;;;13.97;;
56399;SDS011;42298;53.638;9.876;2023-02-28T07:01:35;28.50;;;13.53;;
56399;SDS011;42298;53.638;9.876;2023-02-28T07:04:00;27.93;;;15.13;;
56399;SDS011;42298;53.638;9.876;2023-02-28T07:06:26;28.30;;;14.93;;
56399;SDS011;42298;53.638;9.876;2023-02-28T07:08:52;28.63;;;15.53;;
56399;SDS011;42298;53.638;9.876;2023-02-28T07:11:18;30.23;;;14.67;;
56399;SDS011;42298;53.638;9.876;2023-02-28T07:13:45;28.83;;;14.37;;
56399;SDS011;42298;53.638;9.876;2023-02-28T07:16:12;32.30;;;15.40;;
56399;SDS011;42298;53.638;9.876;2023-02-28T07:18:38;30.10;;;14.73;;
56399;SDS011;42298;53.638;9.876;2023-02-28T07:21:04;30.10;;;15.50;;
56399;SDS011;42298;53.638;9.876;2023-02-28T07:23:31;26.87;;;14.83;;
56399;SDS011;42298;53.638;9.876;2023-02-28T07:25:57;26.13;;;14.30;;
56399;SDS011;42298;53.638;9.876;2023-02-28T07:28:23;27.73;;;13.67;;
56399;SDS011;42298;53.638;9.876;2023-02-28T07:30:48;28.53;;;13.47;;
56399;SDS011;42298;53.638;9.876;2023-02-28T07:33:14;23.07;;;12.07;;
56399;SDS011;42298;53.638;9.876;2023-02-28T07:35:40;25.50;;;11.50;;
56399;SDS011;42298;53.638;9.876;2023-02-28T07:38:06;18.40;;;9.47;;
56399;SDS011;42298;53.638;9.876;2023-02-28T07:40:32;17.97;;;8.63;;
56399;SDS011;42298;53.638;9.876;2023-02-28T07:42:58;20.57;;;8.73;;
56399;SDS011;42298;53.638;9.876;2023-02-28T07:45:25;19.83;;;8.77;;
56399;SDS011;42298;53.638;9.876;2023-02-28T07:47:51;20.90;;;9.13;;
56399;SDS011;42298;53.638;9.876;2023-02-28T07:50:16;19.03;;;8.77;;
56399;SDS011;42298;53.638;9.876;2023-02-28T07:52:42;21.00;;;9.27;;
56399;SDS011;42298;53.638;9.876;2023-02-28T07:55:08;23.37;;;9.60;;
56399;SDS011;42298;53.638;9.876;2023-02-28T07:57:34;22.27;;;9.90;;
56399;SDS011;42298;53.638;9.876;2023-02-28T08:00:00;22.73;;;9.57;;
56399;SDS011;42298;53.638;9.876;2023-02-28T08:02:25;27.00;;;8.67;;
56399;SDS011;42298;53.638;9.876;2023-02-28T08:04:51;18.50;;;6.73;;
56399;SDS011;42298;53.638;9.876;2023-02-28T08:07:17;14.60;;;6.17;;
56399;SDS011;42298;53.638;9.876;2023-02-28T08:09:43;14.83;;;5.70;;
56399;SDS011;42298;53.638;9.876;2023-02-28T08:12:10;10.83;;;5.43;;
56399;SDS011;42298;53.638;9.876;2023-02-28T08:14:36;11.27;;;4.50;;
56399;SDS011;42298;53.638;9.876;2023-02-28T08:17:02;11.33;;;3.80;;
56399;SDS011;42298;53.638;9.876;2023-02-28T08:19:28;9.87;;;4.00;;
56399;SDS011;42298;53.638;9.876;2023-02-28T08:21:54;8.67;;;3.40;;
56399;SDS011;42298;53.638;9.876;2023-02-28T08:24:19;8.67;;;4.20;;
56399;SDS011;42298;53.638;9.876;2023-02-28T08:26:45;7.60;;;3.33;;
56399;SDS011;42298;53.638;9.876;2023-02-28T08:29:10;6.97;;;3.93;;
56399;SDS011;42298;53.638;9.876;2023-02-28T08:31:35;8.43;;;3.30;;
56399;SDS011;42298;53.638;9.876;2023-02-28T08:34:07;7.70;;;2.93;;
56399;SDS011;42298;53.638;9.876;2023-02-28T08:36:37;6.27;;;2.80;;
56399;SDS011;42298;53.638;9.876;2023-02-28T08:39:03;7.73;;;3.00;;
56399;SDS011;42298;53.638;9.876;2023-02-28T08:41:28;7.07;;;3.07;;
56399;SDS011;42298;53.638;9.876;2023-02-28T08:43:54;5.87;;;2.70;;
56399;SDS011;42298;53.638;9.876;2023-02-28T08:46:19;6.93;;;2.97;;
56399;SDS011;42298;53.638;9.876;2023-02-28T08:48:45;6.07;;;2.80;;
56399;SDS011;42298;53.638;9.876;2023-02-28T08:51:12;5.47;;;2.80;;
56399;SDS011;42298;53.638;9.876;2023-02-28T08:53:39;6.07;;;2.90;;
56399;SDS011;42298;53.638;9.876;2023-02-28T08:56:06;5.00;;;2.93;;
56399;SDS011;42298;53.638;9.876;2023-02-28T08:58:33;6.07;;;2.87;;
56399;SDS011;42298;53.638;9.876;2023-02-28T09:00:59;7.03;;;2.90;;
56399;SDS011;42298;53.638;9.876;2023-02-28T09:03:25;4.77;;;2.10;;
56399;SDS011;42298;53.638;9.876;2023-02-28T09:05:56;5.27;;;2.67;;
56399;SDS011;42298;53.638;9.876;2023-02-28T09:08:23;5.13;;;2.60;;
56399;SDS011;42298;53.638;9.876;2023-02-28T09:10:50;4.40;;;2.13;;
56399;SDS011;42298;53.638;9.876;2023-02-28T09:13:16;4.83;;;2.23;;
56399;SDS011;42298;53.638;9.876;2023-02-28T09:15:41;2.20;;;1.60;;
56399;SDS011;42298;53.638;9.876;2023-02-28T09:18:07;3.27;;;2.00;;
56399;SDS011;42298;53.638;9.876;2023-02-28T09:20:32;5.10;;;1.90;;
56399;SDS011;42298;53.638;9.876;2023-02-28T09:22:57;7.37;;;2.20;;
56399;SDS011;42298;53.638;9.876;2023-02-28T09:25:22;5.17;;;2.20;;
56399;SDS011;42298;53.638;9.876;2023-02-28T09:27:48;6.07;;;2.07;;
56399;SDS011;42298;53.638;9.876;2023-02-28T09:30:13;5.57;;;1.93;;
56399;SDS011;42298;53.638;9.876;2023-02-28T09:32:39;3.50;;;1.80;;
56399;SDS011;42298;53.638;9.876;2023-02-28T09:35:05;2.70;;;1.93;;
56399;SDS011;42298;53.638;9.876;2023-02-28T09:37:30;5.37;;;1.83;;
56399;SDS011;42298;53.638;9.876;2023-02-28T09:39:56;4.33;;;1.90;;
56399;SDS011;42298;53.638;9.876;2023-02-28T09:42:24;3.73;;;1.90;;
56399;SDS011;42298;53.638;9.876;2023-02-28T09:44:54;5.23;;;1.87;;
56399;SDS011;42298;53.638;9.876;2023-02-28T09:50:23;5.43;;;2.67;;
56399;SDS011;42298;53.638;9.876;2023-02-28T09:53:06;4.50;;;2.50;;
56399;SDS011;42298;53.638;9.876;2023-02-28T09:55:42;4.83;;;2.20;;
56399;SDS011;42298;53.638;9.876;2023-02-28T09:58:18;3.77;;;2.00;;
56399;SDS011;42298;53.638;9.876;2023-02-28T10:00:50;6.20;;;2.07;;
56399;SDS011;42298;53.638;9.876;2023-02-28T10:03:47;5.63;;;2.40;;
56399;SDS011;42298;53.638;9.876;2023-02-28T10:06:19;4.10;;;2.37;;
56399;SDS011;42298;53.638;9.876;2023-02-28T10:08:52;4.67;;;2.40;;
56399;SDS011;42298;53.638;9.876;2023-02-28T10:11:39;4.45;;;2.25;;
56399;SDS011;42298;53.638;9.876;2023-02-28T10:16:43;7.75;;;2.50;;
56399;SDS011;42298;53.638;9.876;2023-02-28T10:19:20;6.93;;;2.50;;
56399;SDS011;42298;53.638;9.876;2023-02-28T10:21:59;5.33;;;2.53;;
56399;SDS011;42298;53.638;9.876;2023-02-28T10:24:34;4.88;;;2.15;;
56399;SDS011;42298;53.638;9.876;2023-02-28T10:27:15;3.33;;;2.00;;
56399;SDS011;42298;53.638;9.876;2023-02-28T10:29:44;5.70;;;2.10;;
56399;SDS011;42298;53.638;9.876;2023-02-28T10:32:17;4.28;;;2.08;;
56399;SDS011;42298;53.638;9.876;2023-02-28T10:35:00;4.70;;;1.77;;
56399;SDS011;42298;53.638;9.876;2023-02-28T10:37:32;6.73;;;2.23;;
56399;SDS011;42298;53.638;9.876;2023-02-28T10:40:03;4.20;;;2.08;;
56399;SDS011;42298;53.638;9.876;2023-02-28T10:42:30;3.97;;;2.10;;
56399;SDS011;42298;53.638;9.876;2023-02-28T10:47:49;4.50;;;2.50;;
56399;SDS011;42298;53.638;9.876;2023-02-28T11:01:44;4.30;;;2.10;;
56399;SDS011;42298;53.638;9.876;2023-02-28T11:06:42;5.83;;;2.23;;
56399;SDS011;42298;53.638;9.876;2023-02-28T11:11:54;6.23;;;2.47;;
56399;SDS011;42298;53.638;9.876;2023-02-28T11:14:27;5.50;;;2.50;;
56399;SDS011;42298;53.638;9.876;2023-02-28T11:16:54;4.93;;;2.20;;
56399;SDS011;42298;53.638;9.876;2023-02-28T11:19:27;4.10;;;2.13;;
56399;SDS011;42298;53.638;9.876;2023-02-28T11:21:58;5.33;;;2.20;;
56399;SDS011;42298;53.638;9.876;2023-02-28T11:24:27;6.33;;;2.00;;
56399;SDS011;42298;53.638;9.876;2023-02-28T11:27:00;4.07;;;2.30;;
56399;SDS011;42298;53.638;9.876;2023-02-28T11:29:28;5.43;;;2.30;;
56399;SDS011;42298;53.638;9.876;2023-02-28T11:34:30;3.63;;;2.00;;
56399;SDS011;42298;53.638;9.876;2023-02-28T11:36:59;3.27;;;2.00;;
56399;SDS011;42298;53.638;9.876;2023-02-28T11:39:30;5.57;;;2.10;;
56399;SDS011;42298;53.638;9.876;2023-02-28T11:48:22;6.63;;;2.23;;
56399;SDS011;42298;53.638;9.876;2023-02-28T11:56:36;4.27;;;2.30;;
56399;SDS011;42298;53.638;9.876;2023-02-28T12:02:03;3.40;;;2.10;;
56399;SDS011;42298;53.638;9.876;2023-02-28T12:04:52;2.93;;;1.90;;
56399;SDS011;42298;53.638;9.876;2023-02-28T12:08:00;5.53;;;2.23;;
56399;SDS011;42298;53.638;9.876;2023-02-28T12:11:25;2.47;;;1.70;;
56399;SDS011;42298;53.638;9.876;2023-02-28T12:19:18;3.90;;;2.00;;
56399;SDS011;42298;53.638;9.876;2023-02-28T12:22:10;3.30;;;2.00;;
56399;SDS011;42298;53.638;9.876;2023-02-28T12:27:37;3.27;;;1.87;;
56399;SDS011;42298;53.638;9.876;2023-02-28T12:32:41;3.13;;;2.00;;
56399;SDS011;42298;53.638;9.876;2023-02-28T12:37:39;5.73;;;2.20;;
56399;SDS011;42298;53.638;9.876;2023-02-28T12:43:11;3.80;;;1.93;;
56399;SDS011;42298;53.638;9.876;2023-02-28T12:48:24;4.27;;;1.97;;
56399;SDS011;42298;53.638;9.876;2023-02-28T12:50:54;4.10;;;2.17;;
56399;SDS011;42298;53.638;9.876;2023-02-28T12:59:17;4.93;;;2.50;;
56399;SDS011;42298;53.638;9.876;2023-02-28T13:04:57;4.87;;;2.10;;
56399;SDS011;42298;53.638;9.876;2023-02-28T13:10:47;5.03;;;1.87;;
56399;SDS011;42298;53.638;9.876;2023-02-28T13:13:20;7.03;;;2.50;;
56399;SDS011;42298;53.638;9.876;2023-02-28T13:16:06;4.87;;;2.10;;
56399;SDS011;42298;53.638;9.876;2023-02-28T13:18:37;7.63;;;2.60;;
56399;SDS011;42298;53.638;9.876;2023-02-28T13:21:05;3.83;;;2.20;;
56399;SDS011;42298;53.638;9.876;2023-02-28T13:26:12;5.50;;;2.20;;
56399;SDS011;42298;53.638;9.876;2023-02-28T13:31:23;5.47;;;2.30;;
56399;SDS011;42298;53.638;9.876;2023-02-28T13:36:30;4.97;;;2.37;;
56399;SDS011;42298;53.638;9.876;2023-02-28T13:54:44;3.07;;;2.00;;
56399;SDS011;42298;53.638;9.876;2023-02-28T14:05:28;8.47;;;2.60;;
56399;SDS011;42298;53.638;9.876;2023-02-28T14:07:58;4.93;;;2.20;;
56399;SDS011;42298;53.638;9.876;2023-02-28T14:10:48;6.63;;;2.60;;
56399;SDS011;42298;53.638;9.876;2023-02-28T14:18:28;2.97;;;1.97;;
56399;SDS011;42298;53.638;9.876;2023-02-28T14:20:58;4.53;;;2.37;;
56399;SDS011;42298;53.638;9.876;2023-02-28T14:26:53;4.23;;;2.20;;
56399;SDS011;42298;53.638;9.876;2023-02-28T14:32:37;4.27;;;2.50;;
56399;SDS011;42298;53.638;9.876;2023-02-28T14:37:51;4.80;;;2.30;;
56399;SDS011;42298;53.638;9.876;2023-02-28T14:42:57;5.23;;;2.20;;
56399;SDS011;42298;53.638;9.876;2023-02-28T14:45:25;3.80;;;2.50;;
56399;SDS011;42298;53.638;9.876;2023-02-28T14:47:53;3.87;;;2.10;;
56399;SDS011;42298;53.638;9.876;2023-02-28T14:50:20;5.63;;;2.30;;
56399;SDS011;42298;53.638;9.876;2023-02-28T14:52:49;3.63;;;1.90;;
56399;SDS011;42298;53.638;9.876;2023-02-28T14:55:18;3.63;;;2.43;;
56399;SDS011;42298;53.638;9.876;2023-02-28T14:57:51;3.80;;;2.30;;
56399;SDS011;42298;53.638;9.876;2023-02-28T15:00:23;4.80;;;2.40;;
56399;SDS011;42298;53.638;9.876;2023-02-28T15:02:53;4.90;;;2.30;;
56399;SDS011;42298;53.638;9.876;2023-02-28T15:05:23;6.07;;;2.33;;
56399;SDS011;42298;53.638;9.876;2023-02-28T15:10:43;5.50;;;2.20;;
56399;SDS011;42298;53.638;9.876;2023-02-28T15:13:13;5.03;;;2.40;;
56399;SDS011;42298;53.638;9.876;2023-02-28T15:15:59;6.80;;;2.50;;
56399;SDS011;42298;53.638;9.876;2023-02-28T15:21:21;7.50;;;2.73;;
56399;SDS011;42298;53.638;9.876;2023-02-28T15:23:50;6.37;;;2.73;;
56399;SDS011;42298;53.638;9.876;2023-02-28T15:26:22;4.33;;;2.10;;
56399;SDS011;42298;53.638;9.876;2023-02-28T15:28:53;5.57;;;2.53;;
56399;SDS011;42298;53.638;9.876;2023-02-28T15:31:42;8.20;;;2.67;;
56399;SDS011;42298;53.638;9.876;2023-02-28T15:34:20;6.50;;;2.67;;
56399;SDS011;42298;53.638;9.876;2023-02-28T15:36:49;5.67;;;2.70;;
56399;SDS011;42298;53.638;9.876;2023-02-28T15:39:21;6.70;;;2.30;;
56399;SDS011;42298;53.638;9.876;2023-02-28T15:42:16;5.60;;;2.43;;
56399;SDS011;42298;53.638;9.876;2023-02-28T15:44:44;6.63;;;2.87;;
56399;SDS011;42298;53.638;9.876;2023-02-28T15:47:20;6.30;;;2.10;;
56399;SDS011;42298;53.638;9.876;2023-02-28T15:52:29;4.53;;;2.40;;
56399;SDS011;42298;53.638;9.876;2023-02-28T15:55:09;4.07;;;2.10;;
56399;SDS011;42298;53.638;9.876;2023-02-28T15:57:43;3.50;;;2.03;;
56399;SDS011;42298;53.638;9.876;2023-02-28T16:00:12;5.97;;;2.20;;
56399;SDS011;42298;53.638;9.876;2023-02-28T16:02:39;5.70;;;2.50;;
56399;SDS011;42298;53.638;9.876;2023-02-28T16:07:31;3.40;;;2.10;;
56399;SDS011;42298;53.638;9.876;2023-02-28T16:09:56;4.93;;;2.37;;
56399;SDS011;42298;53.638;9.876;2023-02-28T16:12:24;4.03;;;2.30;;
56399;SDS011;42298;53.638;9.876;2023-02-28T16:14:55;3.57;;;2.13;;
56399;SDS011;42298;53.638;9.876;2023-02-28T16:17:28;3.83;;;2.03;;
56399;SDS011;42298;53.638;9.876;2023-02-28T16:19:55;5.03;;;2.50;;
56399;SDS011;42298;53.638;9.876;2023-02-28T16:22:21;5.93;;;2.50;;
56399;SDS011;42298;53.638;9.876;2023-02-28T16:24:46;5.33;;;2.53;;
56399;SDS011;42298;53.638;9.876;2023-02-28T16:27:17;7.40;;;2.50;;
56399;SDS011;42298;53.638;9.876;2023-02-28T16:29:46;6.17;;;2.10;;
56399;SDS011;42298;53.638;9.876;2023-02-28T16:32:13;4.20;;;2.00;;
56399;SDS011;42298;53.638;9.876;2023-02-28T16:34:42;8.40;;;3.70;;
56399;SDS011;42298;53.638;9.876;2023-02-28T16:37:12;3.87;;;2.37;;
56399;SDS011;42298;53.638;9.876;2023-02-28T16:39:42;5.67;;;2.63;;
56399;SDS011;42298;53.638;9.876;2023-02-28T16:42:26;4.97;;;2.50;;
56399;SDS011;42298;53.638;9.876;2023-02-28T16:44:53;6.93;;;2.63;;
56399;SDS011;42298;53.638;9.876;2023-02-28T16:47:20;5.40;;;2.63;;
56399;SDS011;42298;53.638;9.876;2023-02-28T16:49:45;5.30;;;2.80;;
56399;SDS011;42298;53.638;9.876;2023-02-28T16:52:12;7.43;;;2.70;;
56399;SDS011;42298;53.638;9.876;2023-02-28T16:54:39;7.70;;;2.57;;
56399;SDS011;42298;53.638;9.876;2023-02-28T16:57:07;5.93;;;2.30;;
56399;SDS011;42298;53.638;9.876;2023-02-28T16:59:48;5.37;;;2.63;;
56399;SDS011;42298;53.638;9.876;2023-02-28T17:02:15;6.47;;;2.50;;
56399;SDS011;42298;53.638;9.876;2023-02-28T17:04:44;4.87;;;2.40;;
56399;SDS011;42298;53.638;9.876;2023-02-28T17:07:13;4.23;;;2.27;;
56399;SDS011;42298;53.638;9.876;2023-02-28T17:09:41;4.63;;;2.40;;
56399;SDS011;42298;53.638;9.876;2023-02-28T17:12:06;4.27;;;2.30;;
56399;SDS011;42298;53.638;9.876;2023-02-28T17:14:32;5.37;;;2.30;;
56399;SDS011;42298;53.638;9.876;2023-02-28T17:16:58;4.27;;;2.47;;
56399;SDS011;42298;53.638;9.876;2023-02-28T17:19:23;8.10;;;2.90;;
56399;SDS011;42298;53.638;9.876;2023-02-28T17:21:48;7.40;;;2.60;;
56399;SDS011;42298;53.638;9.876;2023-02-28T17:24:13;7.43;;;2.63;;
56399;SDS011;42298;53.638;9.876;2023-02-28T17:29:15;5.60;;;2.73;;
56399;SDS011;42298;53.638;9.876;2023-02-28T17:31:42;6.30;;;2.67;;
56399;SDS011;42298;53.638;9.876;2023-02-28T17:34:07;7.13;;;3.03;;